首页
METAR-TAF:

METAR-TAF

机场 :

孔戈尼亚斯/圣保罗机场

聖保羅, 圣保罗州, 巴西

纬度: 23-37S, 经度: 046-39W, 海拔: 803米

当前天气观测

该预报发布于31分钟前的15:00 UTC
风速10节,风向南转南东
温度 17°C
湿度 72%
气压 1027 hPa
能见度10公里或以上
多云层高于1700英尺
阴天层高于2200英尺

METAR: SBSP 161500Z 15010KT 9999 BKN017 OVC022 17/12 Q1027

时间: 12:31 (15:31 UTC)

预报

该预报发布于6小时和31分钟前的09:00 UTC
预报有效从16日的 12点(UTC)到 17日的 12点(UTC)
风速8节,风向南转南东
能見度: 8000
阴天层高于800英尺
成为
从 16日的 13点(UTC)到 16日的 15点(UTC)
能见度10公里或以上
多云层高于1500英尺
成为
从 16日的 16点(UTC)到 16日的 18点(UTC)
能見度: 8000
多云层高于800英尺
成为
从 17日的 02点(UTC)到 17日的 04点(UTC)
风速5节,风向东南
能見度: 4000
轻雾
几率 30%
从 17日的 08点(UTC)到 17日的 12点(UTC)
能見度: 2000
阴天层高于300英尺
轻雾

TAF: SBSP 160900Z 1612/1712 15008KT 8000 OVC008 TX17/1616Z TN13/1709Z BECMG 1613/1615 9999 BKN015 BECMG 1616/1618 8000 BKN008 BECMG 1702/1704 14005KT 4000 BR PROB30 1708/1712 2000 BR OVC003 RMK PGH

超过4000个机场的气象观测和天气预报(METAR&TAF报告)。

可查询的气象台以黄色和红色小点在地图上表示。

将鼠标移到小点上方,可查看气象台名称。

然后点击查看天气观测和预报。

如需切换地图:点击带黑十字的绿色按钮放大地图;点击带横线的绿色按钮缩小地图;或者点击绿色箭头查看邻近地区的地图。


METAR-TAF: